This is the latest recevied weather packets stored in our database for station/object IK2YOU-3. If no packets are shown the sender has not sent any weather packets the latest 10 day(s).
| Time | Temp. | Humidity | Pressure | Rain* | Wind** | Luminosity | Snow |
|---|---|---|---|---|---|---|---|
| 1777544051 | 18.33° C | 46% | 1021.6 hPa | 0 mm | - | 230 W/m² | - |
| 1777543452 | 17.78° C | 48% | 1021.5 hPa | 0 mm | - | 467 W/m² | - |
| 1777542852 | 18.33° C | 48% | 1021.6 hPa | 0 mm | - | 346 W/m² | - |
| 1777542379 | 17.22° C | 51% | 1021.6 hPa | 0 mm | - | 529 W/m² | - |
| 1777541652 | 17.78° C | 52% | 1021.6 hPa | 0 mm | - | 482 W/m² | - |
| 1777541052 | 17.22° C | 53% | 1021.7 hPa | 0 mm | - | 297 W/m² | - |
| 1777540582 | 17.22° C | 54% | 1021.7 hPa | 0 mm | - | 370 W/m² | - |
| 1777539983 | 17.22° C | 53% | 1021.7 hPa | 0 mm | - | 291 W/m² | - |
| 1777539252 | 17.22° C | 54% | 1021.7 hPa | 0 mm | - | 603 W/m² | - |
| 1777538664 | 17.22° C | 54% | 1021.7 hPa | 0 mm | - | 226 W/m² | - |
| 1777538180 | 16.67° C | 55% | 1021.7 hPa | 0 mm | - | 627 W/m² | - |
| 1777537452 | 16.11° C | 55% | 1021.5 hPa | 0 mm | - | 404 W/m² | - |
| 1777536852 | 16.67° C | 55% | 1021.5 hPa | 0 mm | - | 558 W/m² | - |
| 1777536252 | 16.11° C | 55% | 1021.4 hPa | 0 mm | - | 488 W/m² | - |
| 1777535779 | 16.11° C | 56% | 1021.2 hPa | 0 mm | - | 425 W/m² | - |
| 1777535053 | 15.56° C | 57% | 1021.1 hPa | 0 mm | - | 395 W/m² | - |
| 1777534581 | 15.56° C | 56% | 1020.9 hPa | 0 mm | - | 354 W/m² | - |
| 1777533851 | 15° C | 56% | 1020.9 hPa | 0 mm | - | 368 W/m² | - |
| 1777533252 | 14.44° C | 57% | 1020.8 hPa | 0 mm | - | 179 W/m² | - |
| 1777532652 | 15° C | 58% | 1020.7 hPa | 0 mm | - | 173 W/m² | - |
| 1777532180 | 13.89° C | 63% | 1020.7 hPa | 0 mm | - | 159 W/m² | - |
| 1777531451 | 13.89° C | 63% | 1020.6 hPa | 0 mm | - | 111 W/m² | - |
| 1777530851 | 13.89° C | 62% | 1020.6 hPa | 0 mm | - | 117 W/m² | - |
| 1777530252 | 13.89° C | 63% | 1020.6 hPa | 0 mm | - | 218 W/m² | - |
| 1777529650 | 13.33° C | 64% | 1020.3 hPa | 0 mm | - | 88 W/m² | - |
* Rain latest hour (hover to see other rain measurements)
** Current wind speed in m/s (hover to see current wind gust speed)